Time;durP1;ratioP1;P1;durP2;ratioP2;P2;SDS_P1;SDS_P2;PMS_P1;PMS_P2;Temp;Humidity;BMP_temperature;BMP_pressure;BME280_temperature;BME280_humidity;BME280_pressure;Samples;Min_cycle;Max_cycle;Signal;HPM_P1;HPM_P2
2022/02/23 00:01:11;;;;;;;27.97;25.47;;;6.00;99.90;;;;;;5077887;28;20866;-70
2022/02/23 00:03:38;;;;;;;29.43;26.20;;;6.00;99.90;;;;;;5088372;28;20477;-69
2022/02/23 00:06:04;;;;;;;34.40;25.57;;;5.90;99.90;;;;;;5093856;28;20466;-68
2022/02/23 00:08:33;;;;;;;28.43;25.67;;;5.90;99.90;;;;;;5096794;28;20467;-69
2022/02/23 00:11:00;;;;;;;39.93;26.10;;;5.90;99.90;;;;;;5092695;28;20498;-70
2022/02/23 00:13:27;;;;;;;28.33;25.30;;;5.80;99.90;;;;;;5098366;28;20518;-69
2022/02/23 00:15:54;;;;;;;29.60;26.50;;;5.70;99.90;;;;;;5093143;28;20492;-69
2022/02/23 00:18:22;;;;;;;28.87;26.37;;;5.60;99.90;;;;;;5102021;28;20457;-69
2022/02/23 00:20:50;;;;;;;29.37;25.30;;;5.60;99.90;;;;;;5093864;28;20484;-69
2022/02/23 00:23:18;;;;;;;28.00;25.17;;;5.50;99.90;;;;;;5097795;28;20465;-69
2022/02/23 00:25:46;;;;;;;27.17;24.50;;;5.40;99.90;;;;;;5094658;28;20986;-69
2022/02/23 00:28:13;;;;;;;28.50;25.13;;;5.40;99.90;;;;;;5094921;28;20454;-69
2022/02/23 00:30:40;;;;;;;28.60;26.00;;;5.40;99.90;;;;;;5095680;28;20966;-69
2022/02/23 00:33:08;;;;;;;36.40;26.30;;;5.40;99.90;;;;;;5097028;28;20473;-70
2022/02/23 00:35:36;;;;;;;28.87;26.57;;;5.40;99.90;;;;;;5095678;28;20460;-70
2022/02/23 00:38:03;;;;;;;28.83;26.27;;;5.40;99.90;;;;;;5091098;28;20488;-70
2022/02/23 00:40:30;;;;;;;27.87;25.33;;;5.20;99.90;;;;;;5098080;28;20469;-69
2022/02/23 00:42:59;;;;;;;31.37;28.20;;;5.20;99.90;;;;;;5097538;28;20488;-70
2022/02/23 00:45:27;;;;;;;29.23;26.50;;;5.20;99.90;;;;;;5099850;28;20471;-68
2022/02/23 00:47:55;;;;;;;30.27;27.17;;;5.00;99.90;;;;;;5098716;28;20454;-68
2022/02/23 00:50:22;;;;;;;30.50;27.57;;;5.00;99.90;;;;;;5091023;28;21030;-68
2022/02/23 00:52:50;;;;;;;29.10;26.50;;;5.00;99.90;;;;;;5104352;28;20468;-68
2022/02/23 00:55:19;;;;;;;30.57;27.37;;;4.90;99.90;;;;;;5096293;28;20474;-68
2022/02/23 00:57:46;;;;;;;30.13;26.90;;;4.80;99.90;;;;;;5097727;28;20462;-67
2022/02/23 01:00:16;;;;;;;28.87;26.00;;;4.70;99.90;;;;;;5097733;28;20472;-68
2022/02/23 01:02:43;;;;;;;29.63;26.83;;;4.60;99.90;;;;;;5094039;28;20853;-68
2022/02/23 01:05:10;;;;;;;29.20;26.50;;;4.50;99.90;;;;;;5096903;28;20464;-68
2022/02/23 01:07:38;;;;;;;30.70;27.67;;;4.40;99.90;;;;;;5093884;28;20461;-68
2022/02/23 01:10:09;;;;;;;30.50;27.40;;;4.40;99.90;;;;;;5099418;28;20469;-68
2022/02/23 01:12:36;;;;;;;30.60;28.03;;;4.30;99.90;;;;;;5095717;28;20541;-68
2022/02/23 01:15:04;;;;;;;31.43;28.10;;;4.20;99.90;;;;;;5096581;28;20454;-68
2022/02/23 01:17:32;;;;;;;31.63;28.20;;;4.20;99.90;;;;;;5099589;28;20464;-68
2022/02/23 01:20:00;;;;;;;29.40;27.00;;;4.10;99.90;;;;;;5102412;28;20477;-68
2022/02/23 01:22:27;;;;;;;31.03;27.83;;;4.20;99.90;;;;;;5098179;28;20492;-68
2022/02/23 01:24:54;;;;;;;30.23;27.37;;;4.10;99.90;;;;;;5098100;28;20467;-68
2022/02/23 01:27:21;;;;;;;30.60;27.73;;;4.10;99.90;;;;;;5097995;28;20464;-68
2022/02/23 01:29:48;;;;;;;29.07;27.07;;;3.90;99.90;;;;;;5093622;28;20815;-68
2022/02/23 01:32:15;;;;;;;30.00;26.87;;;3.90;99.90;;;;;;5093197;28;20457;-68
2022/02/23 01:34:43;;;;;;;30.00;27.17;;;3.90;99.90;;;;;;5100773;28;20464;-68
2022/02/23 01:37:10;;;;;;;30.17;27.00;;;4.00;99.90;;;;;;5100234;28;20493;-68
2022/02/23 01:39:37;;;;;;;28.87;26.30;;;4.10;99.90;;;;;;5096210;28;20484;-68
2022/02/23 01:42:05;;;;;;;30.10;27.10;;;4.20;99.90;;;;;;5097285;28;20493;-68
2022/02/23 01:44:32;;;;;;;29.07;26.27;;;4.20;99.90;;;;;;5092646;28;20974;-68
2022/02/23 01:46:59;;;;;;;28.73;25.90;;;4.30;99.90;;;;;;5106546;28;20461;-68
2022/02/23 01:49:26;;;;;;;30.70;25.67;;;4.40;99.90;;;;;;5089956;28;20458;-68
2022/02/23 01:51:54;;;;;;;27.80;25.10;;;4.50;99.90;;;;;;5095250;28;20462;-68
2022/02/23 01:54:22;;;;;;;27.73;25.27;;;4.50;99.90;;;;;;5099475;28;20485;-68
2022/02/23 01:56:49;;;;;;;27.87;25.27;;;4.50;99.90;;;;;;5091589;28;20458;-68
2022/02/23 01:59:17;;;;;;;29.83;26.93;;;4.60;99.90;;;;;;5089050;28;20462;-67
2022/02/23 02:01:44;;;;;;;28.00;25.77;;;4.60;99.90;;;;;;5101498;28;20508;-68
2022/02/23 02:04:11;;;;;;;31.33;26.90;;;4.60;99.90;;;;;;5096392;28;20924;-68
2022/02/23 02:06:38;;;;;;;29.03;26.40;;;4.50;99.90;;;;;;5099019;28;20481;-68
2022/02/23 02:09:06;;;;;;;32.17;26.77;;;4.50;99.90;;;;;;5095621;28;20458;-68
2022/02/23 02:11:33;;;;;;;30.33;27.13;;;4.50;99.90;;;;;;5097610;28;20462;-68
2022/02/23 02:14:01;;;;;;;28.63;26.17;;;4.50;99.90;;;;;;5094511;28;20462;-67
2022/02/23 02:16:28;;;;;;;37.50;26.17;;;4.60;99.90;;;;;;5095055;28;20514;-68
2022/02/23 02:18:55;;;;;;;29.20;26.23;;;4.60;99.90;;;;;;5096611;28;20474;-68
2022/02/23 02:21:22;;;;;;;29.03;26.00;;;4.60;99.90;;;;;;5090298;28;20478;-68
2022/02/23 02:23:51;;;;;;;35.10;27.20;;;4.70;99.90;;;;;;5095249;28;20462;-67
2022/02/23 02:26:18;;;;;;;30.27;27.00;;;4.70;99.90;;;;;;5100558;28;20466;-67
2022/02/23 02:28:45;;;;;;;28.07;25.53;;;4.70;99.90;;;;;;5091713;28;20465;-68
2022/02/23 02:31:12;;;;;;;29.53;26.73;;;4.60;99.90;;;;;;5101385;28;20458;-68
2022/02/23 02:33:40;;;;;;;34.57;25.97;;;4.70;99.90;;;;;;5093168;28;20454;-68
2022/02/23 02:36:07;;;;;;;33.17;27.70;;;4.60;99.90;;;;;;5096126;28;20474;-68
2022/02/23 02:38:34;;;;;;;32.77;28.37;;;4.50;99.90;;;;;;5096700;28;20458;-68
2022/02/23 02:41:02;;;;;;;31.30;27.53;;;4.40;99.90;;;;;;5097761;28;20553;-68
2022/02/23 02:43:29;;;;;;;29.67;26.63;;;4.40;99.90;;;;;;5101100;28;20485;-68
2022/02/23 02:45:57;;;;;;;31.60;28.27;;;4.40;99.90;;;;;;5101088;28;20819;-68
2022/02/23 02:48:24;;;;;;;30.47;27.60;;;4.40;99.90;;;;;;5096903;28;20475;-68
2022/02/23 02:50:52;;;;;;;29.70;26.77;;;4.30;99.90;;;;;;5101095;28;20460;-68
2022/02/23 02:53:19;;;;;;;29.87;27.40;;;4.30;99.90;;;;;;5087791;28;20515;-68
2022/02/23 02:55:45;;;;;;;32.60;28.30;;;4.20;99.90;;;;;;5102134;28;20832;-68
2022/02/23 02:58:14;;;;;;;30.73;28.30;;;4.00;99.90;;;;;;5093321;28;20462;-68
2022/02/23 03:00:41;;;;;;;30.60;27.70;;;4.00;99.90;;;;;;5102195;28;20900;-67
2022/02/23 03:03:08;;;;;;;28.77;26.53;;;4.00;99.90;;;;;;5094751;28;20920;-68
2022/02/23 03:05:36;;;;;;;31.03;28.17;;;4.10;99.90;;;;;;5097248;28;20472;-68
2022/02/23 03:08:03;;;;;;;30.93;28.27;;;4.20;99.90;;;;;;5092520;28;20492;-68
2022/02/23 03:10:30;;;;;;;29.07;26.37;;;4.20;99.90;;;;;;5092752;28;20474;-68
2022/02/23 03:12:57;;;;;;;29.57;26.67;;;4.20;99.90;;;;;;5092224;28;20468;-68
2022/02/23 03:15:26;;;;;;;31.10;26.70;;;4.20;99.90;;;;;;5099320;28;20462;-68
2022/02/23 03:17:53;;;;;;;30.30;27.30;;;4.20;99.90;;;;;;5098799;27;20464;-68
2022/02/23 03:20:20;;;;;;;37.63;26.90;;;4.20;99.90;;;;;;5097224;28;20499;-68
2022/02/23 03:22:47;;;;;;;28.80;25.87;;;4.30;99.90;;;;;;5093003;28;20493;-68
2022/02/23 03:25:13;;;;;;;28.70;26.40;;;4.30;99.90;;;;;;5096309;28;20470;-69
2022/02/23 03:27:40;;;;;;;29.30;26.73;;;4.30;99.90;;;;;;5088068;28;20462;-68
2022/02/23 03:30:08;;;;;;;34.43;27.83;;;4.30;99.90;;;;;;5102635;28;20492;-68
2022/02/23 03:32:39;;;;;;;30.23;27.30;;;4.30;99.90;;;;;;5092773;28;20508;-68
2022/02/23 03:35:07;;;;;;;30.17;27.27;;;4.20;99.90;;;;;;5095561;28;20454;-68
2022/02/23 03:37:34;;;;;;;31.03;28.27;;;4.10;99.90;;;;;;5094862;28;20463;-68
2022/02/23 03:40:02;;;;;;;32.17;27.97;;;4.10;99.90;;;;;;5092011;28;21048;-68
2022/02/23 03:42:29;;;;;;;29.83;26.77;;;4.10;99.90;;;;;;5096159;28;20492;-68
2022/02/23 03:44:56;;;;;;;30.27;27.47;;;4.10;99.90;;;;;;5087830;28;20454;-68
2022/02/23 03:47:23;;;;;;;40.77;29.60;;;4.10;99.90;;;;;;5095979;28;21006;-68
2022/02/23 03:49:52;;;;;;;40.73;28.43;;;4.10;99.90;;;;;;5094111;28;20466;-69
2022/02/23 03:52:21;;;;;;;34.97;28.80;;;4.10;99.90;;;;;;5089037;28;20471;-68
2022/02/23 03:54:48;;;;;;;40.77;28.13;;;4.00;99.90;;;;;;5095431;28;20458;-69
2022/02/23 03:57:14;;;;;;;32.60;28.40;;;4.00;99.90;;;;;;5090005;28;20774;-68
2022/02/23 03:59:41;;;;;;;30.70;27.60;;;4.00;99.90;;;;;;5094119;28;20464;-68
2022/02/23 04:02:08;;;;;;;30.87;27.13;;;3.90;99.90;;;;;;5091968;28;20508;-68
2022/02/23 04:04:35;;;;;;;32.43;29.23;;;3.80;99.90;;;;;;5094189;28;20468;-68
2022/02/23 04:07:05;;;;;;;30.80;28.10;;;3.70;99.90;;;;;;5093497;28;20464;-68
2022/02/23 04:09:31;;;;;;;50.50;29.10;;;3.70;99.90;;;;;;5091686;28;20832;-68
2022/02/23 04:11:58;;;;;;;32.33;29.00;;;3.70;99.90;;;;;;5093058;28;20482;-68
2022/02/23 04:14:25;;;;;;;36.57;28.50;;;3.70;99.90;;;;;;5093541;28;20560;-69
2022/02/23 04:16:52;;;;;;;38.93;29.20;;;3.70;99.90;;;;;;5093643;28;20460;-68
2022/02/23 04:19:19;;;;;;;32.00;28.70;;;3.70;99.90;;;;;;5095519;28;20481;-68
2022/02/23 04:21:46;;;;;;;30.57;27.43;;;3.70;99.90;;;;;;5093958;28;20458;-68
2022/02/23 04:24:15;;;;;;;32.47;28.97;;;3.70;99.90;;;;;;5093277;28;21029;-68
2022/02/23 04:26:43;;;;;;;33.33;28.70;;;3.70;99.90;;;;;;5091785;28;20458;-68
2022/02/23 04:29:09;;;;;;;30.67;27.97;;;3.70;99.90;;;;;;5094136;28;20450;-68
2022/02/23 04:31:36;;;;;;;30.40;27.90;;;3.70;99.90;;;;;;5092491;28;20458;-68
2022/02/23 04:34:04;;;;;;;33.30;29.57;;;3.60;99.90;;;;;;5094716;28;20477;-68
2022/02/23 04:36:31;;;;;;;32.03;28.80;;;3.60;99.90;;;;;;5095155;28;20457;-68
2022/02/23 04:39:01;;;;;;;31.43;28.07;;;3.60;99.90;;;;;;5092456;28;20466;-70
2022/02/23 04:41:29;;;;;;;42.37;29.10;;;3.50;99.90;;;;;;5091725;28;20480;-69
2022/02/23 04:43:56;;;;;;;31.50;29.03;;;3.50;99.90;;;;;;5091380;28;21004;-69
2022/02/23 04:46:24;;;;;;;32.03;29.00;;;3.40;99.90;;;;;;5093020;28;20969;-68
2022/02/23 04:48:51;;;;;;;32.57;29.50;;;3.40;99.90;;;;;;5098835;28;20461;-69
2022/02/23 04:51:19;;;;;;;31.97;29.50;;;3.40;99.90;;;;;;5095235;28;20544;-68
2022/02/23 04:53:48;;;;;;;38.10;29.47;;;3.40;99.90;;;;;;5091458;28;20855;-68
2022/02/23 04:56:14;;;;;;;31.73;29.20;;;3.40;99.90;;;;;;5090369;28;20457;-68
2022/02/23 04:58:44;;;;;;;33.57;30.20;;;3.40;99.90;;;;;;5090681;28;20821;-68
2022/02/23 05:01:11;;;;;;;31.60;28.60;;;3.40;99.90;;;;;;5091313;28;20581;-69
2022/02/23 05:03:39;;;;;;;34.53;31.10;;;3.40;99.90;;;;;;5068617;28;21034;-69
2022/02/23 05:06:07;;;;;;;35.40;31.80;;;3.30;99.90;;;;;;5067225;28;20474;-69
2022/02/23 05:08:34;;;;;;;33.57;29.90;;;3.30;99.90;;;;;;5068835;28;20802;-68
2022/02/23 05:11:01;;;;;;;32.17;29.37;;;3.30;99.90;;;;;;5068396;28;20787;-70
2022/02/23 05:13:29;;;;;;;33.97;29.70;;;3.30;99.90;;;;;;5065924;28;20458;-69
2022/02/23 05:15:59;;;;;;;33.50;30.00;;;3.30;99.90;;;;;;5067851;28;20498;-69
2022/02/23 05:18:27;;;;;;;33.30;29.83;;;3.30;99.90;;;;;;5062043;28;21043;-69
2022/02/23 05:20:54;;;;;;;32.73;29.90;;;3.30;99.90;;;;;;5066277;28;20517;-69
2022/02/23 05:23:22;;;;;;;34.23;30.57;;;3.30;99.90;;;;;;5071419;28;20499;-69
2022/02/23 05:25:48;;;;;;;32.67;29.80;;;3.30;99.90;;;;;;5069035;28;20459;-70
2022/02/23 05:28:15;;;;;;;33.87;30.67;;;3.30;99.90;;;;;;5071563;28;20518;-69
2022/02/23 05:30:42;;;;;;;33.40;30.30;;;3.20;99.90;;;;;;5070824;28;20451;-69
2022/02/23 05:33:10;;;;;;;33.73;30.37;;;3.20;99.90;;;;;;5068843;28;20466;-69
2022/02/23 05:35:39;;;;;;;33.30;30.20;;;3.20;99.90;;;;;;5067581;28;20964;-69
2022/02/23 05:38:06;;;;;;;47.10;32.60;;;3.20;99.90;;;;;;5070437;28;20457;-69
2022/02/23 05:40:33;;;;;;;34.63;30.93;;;3.20;99.90;;;;;;5070541;28;20476;-69
2022/02/23 05:43:00;;;;;;;34.57;31.00;;;3.20;99.90;;;;;;5068719;28;20534;-69
2022/02/23 05:45:27;;;;;;;37.27;33.73;;;3.10;99.90;;;;;;5070115;28;20465;-69
2022/02/23 05:47:54;;;;;;;34.73;31.23;;;3.00;99.90;;;;;;5071318;28;20462;-70
2022/02/23 05:50:22;;;;;;;34.93;31.23;;;2.90;99.90;;;;;;5070500;28;20462;-69
2022/02/23 05:52:48;;;;;;;36.27;32.43;;;2.80;99.90;;;;;;5069967;28;20476;-69
2022/02/23 05:55:15;;;;;;;34.37;31.07;;;2.70;99.90;;;;;;5070206;28;20499;-69
2022/02/23 05:57:42;;;;;;;33.17;30.00;;;2.80;99.90;;;;;;5070233;28;20497;-70
2022/02/23 06:00:11;;;;;;;34.80;31.30;;;2.70;99.90;;;;;;5068592;28;20472;-68
2022/02/23 06:02:37;;;;;;;37.30;33.37;;;2.60;99.90;;;;;;5069683;28;20490;-68
2022/02/23 06:05:05;;;;;;;39.07;32.13;;;2.60;99.90;;;;;;5069360;28;20465;-68
2022/02/23 06:07:34;;;;;;;35.13;31.83;;;2.60;99.90;;;;;;5071656;28;20462;-68
2022/02/23 06:10:01;;;;;;;35.57;31.80;;;2.60;99.90;;;;;;5071018;28;20616;-69
2022/02/23 06:12:28;;;;;;;36.77;30.97;;;2.50;99.90;;;;;;5070492;28;20684;-69
2022/02/23 06:14:55;;;;;;;36.23;32.87;;;2.40;99.90;;;;;;5067280;28;20477;-68
2022/02/23 06:17:22;;;;;;;34.13;31.13;;;2.40;99.90;;;;;;5070256;28;20589;-69
2022/02/23 06:19:48;;;;;;;35.07;31.00;;;2.40;99.90;;;;;;5069507;28;20484;-69
2022/02/23 06:22:15;;;;;;;35.23;31.63;;;2.30;99.90;;;;;;5069455;28;20514;-69
2022/02/23 06:24:43;;;;;;;34.70;31.70;;;2.40;99.90;;;;;;5070353;28;20505;-69
2022/02/23 06:27:13;;;;;;;35.73;31.93;;;2.40;99.90;;;;;;5071070;28;20966;-68
2022/02/23 06:29:41;;;;;;;35.90;32.40;;;2.40;99.90;;;;;;5068622;28;20971;-69
2022/02/23 06:32:09;;;;;;;34.80;31.40;;;2.40;99.90;;;;;;5067416;28;20470;-69
2022/02/23 06:34:38;;;;;;;34.67;30.10;;;2.50;99.90;;;;;;5068181;28;20487;-69
2022/02/23 06:37:06;;;;;;;37.00;30.43;;;2.60;99.90;;;;;;5069391;28;20458;-69
2022/02/23 06:39:35;;;;;;;33.47;30.13;;;2.70;99.90;;;;;;5069934;28;20458;-70
2022/02/23 06:42:05;;;;;;;34.87;30.43;;;2.80;99.90;;;;;;5069805;28;20501;-69
2022/02/23 06:44:32;;;;;;;33.00;29.97;;;2.80;99.90;;;;;;5069421;28;20500;-69
2022/02/23 06:47:00;;;;;;;39.20;31.83;;;2.90;99.90;;;;;;5068534;28;20461;-69
2022/02/23 06:49:28;;;;;;;32.33;29.33;;;2.90;99.90;;;;;;5069846;28;20474;-69
2022/02/23 06:51:58;;;;;;;35.73;30.00;;;2.90;99.90;;;;;;5066045;28;20454;-69
2022/02/23 06:54:25;;;;;;;32.60;30.10;;;2.90;99.90;;;;;;5067359;28;20845;-69
2022/02/23 06:56:52;;;;;;;32.07;29.50;;;3.00;99.90;;;;;;5067639;28;20462;-69
2022/02/23 06:59:21;;;;;;;30.87;28.07;;;3.00;99.90;;;;;;5066704;28;20462;-69
2022/02/23 07:01:48;;;;;;;32.60;29.23;;;3.10;99.90;;;;;;5065761;28;20466;-69
2022/02/23 07:04:15;;;;;;;31.20;28.53;;;3.10;99.90;;;;;;5064810;28;20976;-69
2022/02/23 07:06:42;;;;;;;32.00;28.53;;;3.20;99.90;;;;;;5067953;28;20460;-68
2022/02/23 07:09:09;;;;;;;29.83;26.93;;;3.20;99.90;;;;;;5065837;28;20457;-69
2022/02/23 07:11:38;;;;;;;37.60;28.83;;;3.30;99.90;;;;;;5067681;28;21137;-68
2022/02/23 07:14:06;;;;;;;31.47;28.30;;;3.30;99.90;;;;;;5068222;28;20472;-69
2022/02/23 07:16:34;;;;;;;31.00;27.90;;;3.30;99.90;;;;;;5066797;28;20832;-68
2022/02/23 07:19:01;;;;;;;30.23;27.13;;;3.30;99.90;;;;;;5068905;28;21404;-69
2022/02/23 07:21:28;;;;;;;30.47;27.57;;;3.40;99.90;;;;;;5068260;28;21074;-69
2022/02/23 07:23:55;;;;;;;31.43;28.10;;;3.50;99.90;;;;;;5068000;28;20496;-69
2022/02/23 07:26:22;;;;;;;30.93;27.87;;;3.50;99.90;;;;;;5067642;28;20466;-68
2022/02/23 07:28:50;;;;;;;37.67;27.60;;;3.50;99.90;;;;;;5068628;28;20552;-69
2022/02/23 07:31:18;;;;;;;30.87;27.97;;;3.60;99.90;;;;;;5069351;28;20469;-68
2022/02/23 07:33:47;;;;;;;37.67;29.00;;;3.60;99.90;;;;;;5065855;28;21011;-69
2022/02/23 07:36:15;;;;;;;32.20;29.43;;;3.70;99.90;;;;;;5066591;28;20825;-69
2022/02/23 07:38:43;;;;;;;41.43;31.00;;;3.80;99.90;;;;;;5068106;28;20466;-69
2022/02/23 07:41:11;;;;;;;32.60;29.43;;;3.80;99.90;;;;;;5068859;28;20851;-69
2022/02/23 07:43:39;;;;;;;32.17;28.70;;;3.80;99.90;;;;;;5066732;28;21476;-69
2022/02/23 07:46:10;;;;;;;32.27;29.10;;;3.90;99.90;;;;;;5068038;28;20548;-69
2022/02/23 07:48:38;;;;;;;31.00;28.17;;;4.00;99.90;;;;;;5066516;28;20453;-69
2022/02/23 07:51:06;;;;;;;33.27;29.70;;;4.00;99.90;;;;;;5088388;27;20526;-68
2022/02/23 07:53:33;;;;;;;38.43;30.90;;;4.00;99.90;;;;;;5055413;28;20466;-70
2022/02/23 07:56:00;;;;;;;34.20;30.63;;;4.10;99.90;;;;;;5061438;28;20457;-70
2022/02/23 07:58:27;;;;;;;32.97;29.60;;;4.20;99.90;;;;;;5064084;28;20449;-69
2022/02/23 08:00:54;;;;;;;31.67;28.70;;;4.20;99.90;;;;;;5077821;28;20888;-70
2022/02/23 08:03:23;;;;;;;31.60;28.47;;;4.30;99.90;;;;;;5072244;28;21791;-69
2022/02/23 08:05:51;;;;;;;31.70;28.40;;;4.30;99.90;;;;;;5062512;28;20466;-70
2022/02/23 08:08:19;;;;;;;31.50;28.33;;;4.40;99.90;;;;;;5083013;28;20580;-69
2022/02/23 08:10:47;;;;;;;36.47;29.10;;;4.40;99.90;;;;;;5064320;28;20583;-70
2022/02/23 08:13:15;;;;;;;32.90;28.30;;;4.50;99.90;;;;;;5062056;28;20457;-69
2022/02/23 08:21:12;;;;;;;41.63;28.63;;;4.70;99.90;;;;;;5078545;28;20497;-68
2022/02/23 08:23:43;;;;;;;32.37;29.17;;;4.90;99.90;;;;;;5088913;28;20505;-70
2022/02/23 08:26:11;;;;;;;30.97;27.40;;;4.90;99.90;;;;;;5067748;28;20492;-69
2022/02/23 08:28:38;;;;;;;33.07;30.17;;;5.00;99.90;;;;;;5063401;28;20576;-68
2022/02/23 08:31:06;;;;;;;32.73;29.60;;;5.10;99.90;;;;;;5063185;28;20464;-70
2022/02/23 08:33:33;;;;;;;32.10;28.80;;;5.20;99.90;;;;;;5063127;28;20455;-69
2022/02/23 08:36:00;;;;;;;32.30;28.97;;;5.30;99.90;;;;;;5063300;28;20947;-69
2022/02/23 08:38:27;;;;;;;31.57;28.30;;;5.40;99.90;;;;;;5064320;28;20476;-69
2022/02/23 08:40:55;;;;;;;32.93;29.73;;;5.40;99.90;;;;;;5060774;28;21880;-69
2022/02/23 08:43:22;;;;;;;32.67;29.50;;;5.50;99.90;;;;;;5062721;28;20489;-68
2022/02/23 08:45:48;;;;;;;31.27;28.13;;;5.70;99.90;;;;;;5062918;28;20484;-68
2022/02/23 08:48:16;;;;;;;31.80;28.30;;;5.70;99.90;;;;;;5063899;28;20465;-69
2022/02/23 08:50:42;;;;;;;31.63;28.70;;;5.80;99.90;;;;;;5063884;28;20470;-68
2022/02/23 08:53:09;;;;;;;31.73;28.07;;;5.90;99.90;;;;;;5061603;28;20900;-68
2022/02/23 08:55:36;;;;;;;35.73;27.47;;;6.00;99.90;;;;;;5065454;28;21006;-68
2022/02/23 08:58:05;;;;;;;31.80;28.50;;;6.10;99.90;;;;;;5065901;28;20477;-69
2022/02/23 09:00:32;;;;;;;30.13;27.30;;;6.10;99.90;;;;;;5067367;28;20650;-69
2022/02/23 09:05:39;;;;;;;33.00;27.43;;;6.30;99.90;;;;;;5067826;27;20752;-69
2022/02/23 09:08:06;;;;;;;35.57;27.80;;;6.30;99.90;;;;;;5066822;28;20847;-69
2022/02/23 09:10:33;;;;;;;29.00;26.30;;;6.40;99.90;;;;;;5065836;28;21130;-69
2022/02/23 09:13:00;;;;;;;29.40;25.90;;;6.50;99.90;;;;;;5066664;28;20469;-68
2022/02/23 09:15:28;;;;;;;34.97;27.10;;;6.60;99.90;;;;;;5067354;28;20462;-69
2022/02/23 09:17:55;;;;;;;28.17;25.30;;;6.60;99.90;;;;;;5069922;28;20473;-69
2022/02/23 09:20:22;;;;;;;32.97;25.67;;;6.70;99.90;;;;;;5078667;28;20482;-68
2022/02/23 09:22:49;;;;;;;29.47;24.30;;;6.80;99.90;;;;;;5097048;28;20548;-68
2022/02/23 09:25:16;;;;;;;26.03;23.50;;;6.80;99.90;;;;;;5094222;28;20501;-68
2022/02/23 09:27:42;;;;;;;29.80;23.17;;;6.90;99.90;;;;;;5072699;28;20730;-68
2022/02/23 09:30:12;;;;;;;28.50;23.27;;;6.90;99.90;;;;;;5066742;28;20466;-67
2022/02/23 09:32:41;;;;;;;26.33;23.60;;;7.00;99.90;;;;;;5065459;28;20600;-68
2022/02/23 09:35:08;;;;;;;26.03;23.20;;;7.10;99.90;;;;;;5066037;28;20479;-70
2022/02/23 09:37:35;;;;;;;26.33;23.47;;;7.20;99.90;;;;;;5065976;28;20456;-69
2022/02/23 09:40:03;;;;;;;35.90;23.00;;;7.30;99.90;;;;;;5066160;28;20457;-68
2022/02/23 09:42:31;;;;;;;39.37;24.80;;;7.30;99.90;;;;;;5065316;28;21096;-68
2022/02/23 09:44:59;;;;;;;28.40;23.57;;;7.30;99.90;;;;;;5066177;28;20498;-69
2022/02/23 09:47:26;;;;;;;29.60;21.83;;;7.40;99.90;;;;;;5066026;28;20476;-71
2022/02/23 09:49:55;;;;;;;23.70;20.60;;;7.50;99.90;;;;;;5061254;28;20517;-72
2022/02/23 09:52:24;;;;;;;29.90;22.00;;;7.50;99.90;;;;;;5064942;28;20492;-70
2022/02/23 09:54:51;;;;;;;24.97;20.70;;;7.60;99.90;;;;;;5063431;28;20584;-70
2022/02/23 09:57:18;;;;;;;27.33;21.80;;;7.60;99.90;;;;;;5064833;28;21297;-70
2022/02/23 09:59:45;;;;;;;30.23;19.70;;;7.70;99.90;;;;;;5066124;28;21203;-70
2022/02/23 10:02:12;;;;;;;21.70;19.70;;;7.90;99.90;;;;;;5065889;28;20779;-71
2022/02/23 10:04:40;;;;;;;27.23;19.70;;;8.00;99.90;;;;;;5064120;28;21046;-69
2022/02/23 10:07:09;;;;;;;27.23;19.57;;;8.00;99.90;;;;;;5066272;28;20741;-68
2022/02/23 10:09:42;;;;;;;20.97;18.53;;;8.00;99.90;;;;;;5066432;28;20457;-69
2022/02/23 10:12:09;;;;;;;20.87;18.67;;;8.10;99.90;;;;;;5065649;28;21273;-68
2022/02/23 10:14:36;;;;;;;19.97;18.20;;;8.10;99.90;;;;;;5066078;28;21278;-70
2022/02/23 10:17:04;;;;;;;23.50;18.63;;;8.20;99.90;;;;;;5065354;28;21143;-70
2022/02/23 10:19:33;;;;;;;22.57;18.87;;;8.30;99.90;;;;;;5066146;28;21226;-68
2022/02/23 10:22:02;;;;;;;23.30;20.73;;;8.30;99.90;;;;;;5066396;28;20503;-68
2022/02/23 10:24:32;;;;;;;22.10;19.40;;;8.30;99.90;;;;;;5065635;28;20499;-70
2022/02/23 10:27:02;;;;;;;21.40;19.20;;;8.50;99.90;;;;;;5095491;28;20468;-69
2022/02/23 10:29:31;;;;;;;20.27;18.43;;;8.60;99.90;;;;;;5089029;28;20458;-68
2022/02/23 10:32:00;;;;;;;18.97;16.70;;;8.90;99.90;;;;;;5082878;28;21173;-69
2022/02/23 10:34:27;;;;;;;20.53;17.80;;;9.30;99.90;;;;;;5064604;28;20605;-68
2022/02/23 10:37:02;;;;;;;19.10;17.20;;;9.90;99.90;;;;;;5065623;28;20479;-70
2022/02/23 10:39:39;;;;;;;18.97;16.30;;;10.40;99.90;;;;;;5065890;28;20472;-69
2022/02/23 10:42:08;;;;;;;17.90;16.10;;;10.90;99.90;;;;;;5064519;28;20485;-68
2022/02/23 10:44:34;;;;;;;18.23;16.43;;;11.10;99.90;;;;;;5064645;28;20493;-69
2022/02/23 10:47:02;;;;;;;18.50;16.60;;;11.40;99.90;;;;;;5064796;28;20470;-68
2022/02/23 10:49:29;;;;;;;18.40;16.67;;;11.60;99.90;;;;;;5065076;28;20476;-70
2022/02/23 10:52:06;;;;;;;24.40;17.60;;;11.50;99.90;;;;;;5066539;28;20480;-71
2022/02/23 10:54:34;;;;;;;18.13;16.40;;;11.20;99.90;;;;;;5073938;28;20909;-69
2022/02/23 10:57:18;;;;;;;19.70;17.80;;;11.70;99.90;;;;;;5062957;28;20541;-69
2022/02/23 10:59:45;;;;;;;39.00;27.80;;;12.00;99.90;;;;;;5063220;28;21045;-69
2022/02/23 11:02:13;;;;;;;24.60;21.87;;;12.00;99.90;;;;;;5063488;28;20480;-71
2022/02/23 11:04:40;;;;;;;20.83;17.60;;;11.90;99.90;;;;;;5074400;28;20495;-70
2022/02/23 11:07:08;;;;;;;20.93;17.90;;;12.00;99.90;;;;;;5070125;28;20553;-70
2022/02/23 11:09:35;;;;;;;18.13;16.27;;;12.30;99.90;;;;;;5076865;28;20901;-71
2022/02/23 11:12:05;;;;;;;27.47;22.40;;;12.70;99.90;;;;;;5089271;28;20469;-71
2022/02/23 11:14:34;;;;;;;19.80;18.30;;;12.90;99.90;;;;;;5090459;28;20461;-71
2022/02/23 11:17:02;;;;;;;18.50;17.03;;;13.10;99.90;;;;;;5080852;28;20466;-71
2022/02/23 11:19:32;;;;;;;21.53;19.53;;;13.00;99.90;;;;;;5064627;28;20484;-70
2022/02/23 11:22:02;;;;;;;25.60;23.00;;;12.70;99.90;;;;;;5091901;28;20485;-71
2022/02/23 11:24:29;;;;;;;33.93;28.07;;;12.90;99.90;;;;;;5092892;28;20477;-73
2022/02/23 11:27:01;;;;;;;21.30;19.40;;;12.90;99.90;;;;;;5088538;28;20461;-70
2022/02/23 11:29:40;;;;;;;22.00;18.20;;;12.90;99.90;;;;;;5080304;28;20870;-68
2022/02/23 11:32:08;;;;;;;25.87;17.00;;;13.10;99.90;;;;;;5064555;28;20457;-70
2022/02/23 11:34:39;;;;;;;17.77;16.40;;;13.00;99.90;;;;;;5064159;28;20874;-68
2022/02/23 11:37:11;;;;;;;21.60;18.37;;;13.10;99.90;;;;;;5064840;28;20462;-69
2022/02/23 11:39:38;;;;;;;17.67;16.30;;;13.10;99.90;;;;;;5064016;28;20957;-69
2022/02/23 11:42:10;;;;;;;18.00;16.33;;;13.60;99.90;;;;;;5064315;28;20984;-70
2022/02/23 11:44:46;;;;;;;17.90;16.10;;;13.80;99.90;;;;;;5064308;28;20490;-69
2022/02/23 11:47:17;;;;;;;17.67;16.27;;;13.60;99.90;;;;;;5064057;28;20458;-69
2022/02/23 11:49:52;;;;;;;18.07;16.60;;;13.40;99.90;;;;;;5065076;28;20461;-72
2022/02/23 11:52:21;;;;;;;23.60;18.10;;;13.60;99.90;;;;;;5064956;28;20462;-71
2022/02/23 11:54:56;;;;;;;18.23;16.83;;;13.60;99.90;;;;;;5064212;28;20469;-72
2022/02/23 11:57:43;;;;;;;17.07;15.63;;;13.50;99.90;;;;;;5063472;28;20457;-72
2022/02/23 12:00:14;;;;;;;17.80;16.20;;;13.70;99.90;;;;;;5061947;28;20473;-73
2022/02/23 12:02:42;;;;;;;18.63;17.20;;;13.80;99.90;;;;;;5063962;28;20461;-70
2022/02/23 12:05:29;;;;;;;17.70;16.13;;;14.00;99.90;;;;;;5064756;28;20493;-69
2022/02/23 12:07:59;;;;;;;19.00;17.30;;;14.00;99.90;;;;;;5065100;28;20461;-69
2022/02/23 12:10:27;;;;;;;21.07;19.07;;;14.20;99.90;;;;;;5086466;28;20462;-70
2022/02/23 12:12:55;;;;;;;18.13;16.70;;;14.30;99.90;;;;;;5085909;28;20462;-70
2022/02/23 12:15:32;;;;;;;17.43;16.07;;;14.50;99.90;;;;;;5075399;28;20498;-71
2022/02/23 12:18:00;;;;;;;19.23;17.30;;;14.60;99.90;;;;;;5064283;28;20469;-69
2022/02/23 12:20:52;;;;;;;18.67;17.17;;;14.70;99.90;;;;;;5061806;28;20516;-69
2022/02/23 12:23:34;;;;;;;19.40;17.90;;;15.10;99.90;;;;;;5063097;28;21023;-69
2022/02/23 12:26:32;;;;;;;18.87;17.20;;;15.00;99.90;;;;;;5063905;28;20903;-70
2022/02/23 12:29:01;;;;;;;19.17;17.60;;;15.30;99.90;;;;;;5059176;28;20458;-70
2022/02/23 12:31:32;;;;;;;32.87;26.73;;;15.00;99.90;;;;;;5068722;28;20820;-70
2022/02/23 12:34:02;;;;;;;18.43;16.80;;;14.80;99.90;;;;;;5066895;28;20827;-70
2022/02/23 12:36:37;;;;;;;18.10;16.80;;;14.80;99.90;;;;;;5066706;28;20455;-70
2022/02/23 12:39:08;;;;;;;20.23;18.33;;;15.10;99.90;;;;;;5067662;28;20457;-70
2022/02/23 12:41:36;;;;;;;18.53;17.13;;;15.10;99.90;;;;;;5068046;28;20852;-70
2022/02/23 12:44:06;;;;;;;19.20;17.43;;;15.10;99.90;;;;;;5065221;28;20458;-70
2022/02/23 12:46:37;;;;;;;19.47;17.67;;;15.30;99.90;;;;;;5064957;28;20483;-70
2022/02/23 12:49:05;;;;;;;19.13;17.73;;;14.90;99.90;;;;;;5067272;28;20472;-70